createdAt,value
2018-07-20T00:02:24.739Z,97389.45
2018-07-20T00:04:54.440Z,97381.45
2018-07-20T00:07:24.539Z,97384.55
2018-07-20T00:09:54.340Z,97386.59
2018-07-20T00:12:24.241Z,97381.45
2018-07-20T00:14:53.937Z,97381.94
2018-07-20T00:17:23.808Z,97380.28
2018-07-20T00:19:53.499Z,97379.80
2018-07-20T00:22:23.472Z,97376.68
2018-07-20T00:24:53.186Z,97374.66
2018-07-20T00:27:22.980Z,97373.70
2018-07-20T00:29:52.773Z,97371.69
2018-07-20T00:32:22.703Z,97374.20
2018-07-20T00:34:52.318Z,97369.31
2018-07-20T00:37:22.094Z,97375.12
2018-07-20T00:39:51.861Z,97370.25
2018-07-20T00:42:21.893Z,97369.55
2018-07-20T00:44:51.653Z,97364.53
2018-07-20T00:47:22.013Z,97363.33
2018-07-20T00:49:51.731Z,97361.07
2018-07-20T00:52:21.596Z,97361.67
2018-07-20T00:54:51.294Z,97361.67
2018-07-20T00:57:21.220Z,97359.99
2018-07-20T00:59:50.822Z,97361.67
2018-07-20T01:02:20.751Z,97355.72
2018-07-20T01:04:50.438Z,97360.36
2018-07-20T01:07:20.269Z,97358.67
2018-07-20T01:09:50.084Z,97357.84
2018-07-20T01:12:19.980Z,97352.86
2018-07-20T01:14:49.936Z,97353.78
2018-07-20T01:17:19.832Z,97347.94
2018-07-20T01:19:49.646Z,97347.84
2018-07-20T01:22:19.644Z,97340.92
2018-07-20T01:24:49.287Z,97350.31
2018-07-20T01:27:19.151Z,97345.91
2018-07-20T01:29:48.940Z,97342.80
2018-07-20T01:32:18.887Z,97339.59
2018-07-20T01:34:48.647Z,97340.44
2018-07-20T01:37:18.489Z,97339.36
2018-07-20T01:39:48.162Z,97341.98
2018-07-20T01:42:18.013Z,97344.72
2018-07-20T01:44:47.820Z,97336.86
2018-07-20T01:47:18.419Z,97334.80
2018-07-20T01:49:48.228Z,97332.92
2018-07-20T01:52:18.140Z,97333.37
2018-07-20T01:54:47.794Z,97343.04
2018-07-20T01:57:17.577Z,97339.34
2018-07-20T01:59:47.370Z,97340.39
2018-07-20T02:02:17.103Z,97340.65
2018-07-20T02:04:46.824Z,97336.00
2018-07-20T02:07:16.620Z,97329.68
2018-07-20T02:09:46.309Z,97327.52
2018-07-20T02:12:16.098Z,97336.92
2018-07-20T02:14:45.897Z,97335.16
2018-07-20T02:17:15.718Z,97337.14
2018-07-20T02:19:45.362Z,97340.96
2018-07-20T02:22:15.448Z,97340.70
2018-07-20T02:24:45.265Z,97346.42
2018-07-20T02:27:14.970Z,97342.72
2018-07-20T02:29:44.811Z,97342.20
2018-07-20T02:32:14.573Z,97343.14
2018-07-20T02:34:44.265Z,97340.41
2018-07-20T02:37:14.036Z,97341.61
2018-07-20T02:39:43.612Z,97343.03
2018-07-20T02:42:13.564Z,97340.89
2018-07-20T02:44:43.429Z,97340.19
2018-07-20T02:47:13.111Z,97342.54
2018-07-20T02:49:43.190Z,97339.70
2018-07-20T02:52:12.976Z,97336.81
2018-07-20T02:54:42.651Z,97337.89
2018-07-20T02:57:12.391Z,97336.33
2018-07-20T02:59:42.186Z,97343.81
2018-07-20T03:02:11.932Z,97342.72
2018-07-20T03:04:41.710Z,97346.77
2018-07-20T03:07:12.098Z,97346.16
2018-07-20T03:09:41.859Z,97348.33
2018-07-20T03:12:11.944Z,97354.88
2018-07-20T03:14:41.635Z,97357.11
2018-07-20T03:17:12.513Z,97359.47
2018-07-20T03:19:42.265Z,97363.78
2018-07-20T03:22:12.785Z,97366.55
2018-07-20T03:24:42.448Z,97368.90
2018-07-20T03:27:12.016Z,97377.47
2018-07-20T03:29:41.853Z,97381.73
2018-07-20T03:32:11.603Z,97378.16
2018-07-20T03:34:41.582Z,97381.67
2018-07-20T03:37:11.295Z,97381.33
2018-07-20T03:39:41.098Z,97389.88
2018-07-20T03:42:10.991Z,97387.71
2018-07-20T03:44:40.769Z,97387.16
2018-07-20T03:47:10.497Z,97381.39
2018-07-20T03:49:40.556Z,97389.97
2018-07-20T03:52:10.365Z,97383.89
2018-07-20T03:54:40.160Z,97386.73
2018-07-20T03:57:10.009Z,97383.41
2018-07-20T03:59:39.970Z,97383.89
2018-07-20T04:02:09.620Z,97383.89
2018-07-20T04:04:39.394Z,97381.95
2018-07-20T04:07:09.074Z,97375.98
2018-07-20T04:09:39.012Z,97373.47
2018-07-20T04:12:08.754Z,97373.95
2018-07-20T04:14:38.551Z,97370.64
2018-07-20T04:17:08.239Z,97363.13
2018-07-20T04:19:38.268Z,97369.56
2018-07-20T04:22:07.875Z,97372.07
2018-07-20T04:24:37.646Z,97368.75
2018-07-20T04:27:07.291Z,97369.72
2018-07-20T04:29:37.051Z,97368.45
2018-07-20T04:32:06.859Z,97371.41
2018-07-20T04:34:36.635Z,97365.84
2018-07-20T04:37:06.331Z,97361.09
2018-07-20T04:39:36.072Z,97366.94
2018-07-20T04:42:05.674Z,97360.77
2018-07-20T04:44:35.431Z,97362.11
2018-07-20T04:47:05.191Z,97359.19
2018-07-20T04:49:35.234Z,97362.18
2018-07-20T04:52:04.892Z,97359.33
2018-07-20T04:54:34.753Z,97349.10
2018-07-20T04:57:04.519Z,97351.27
2018-07-20T04:59:34.316Z,97346.62
2018-07-20T05:02:04.092Z,97347.47
2018-07-20T05:04:34.339Z,97348.06
2018-07-20T05:07:04.175Z,97342.60
2018-07-20T05:09:33.936Z,97346.76
2018-07-20T05:12:03.611Z,97344.86
2018-07-20T05:14:33.399Z,97344.73
2018-07-20T05:17:03.001Z,97344.51
2018-07-20T05:19:33.230Z,97338.52
2018-07-20T05:22:03.008Z,97344.36
2018-07-20T05:24:32.908Z,97344.84
2018-07-20T05:27:02.531Z,97345.55
2018-07-20T05:29:32.514Z,97338.60
2018-07-20T05:32:02.120Z,97340.92
2018-07-20T05:34:31.890Z,97336.81
2018-07-20T05:37:01.531Z,97330.44
2018-07-20T05:39:31.291Z,97320.83
2018-07-20T05:42:01.020Z,97322.66
2018-07-20T05:44:30.819Z,97317.90
2018-07-20T05:47:00.571Z,97324.63
2018-07-20T05:49:30.330Z,97318.65
2018-07-20T05:51:59.938Z,97318.04
2018-07-20T05:54:29.865Z,97322.45
2018-07-20T05:56:59.613Z,97315.86
2018-07-20T05:59:29.349Z,97318.67
2018-07-20T06:01:59.070Z,97321.61
2018-07-20T06:04:28.936Z,97323.39
2018-07-20T06:06:58.514Z,97320.67
2018-07-20T06:09:28.390Z,97315.63
2018-07-20T06:11:57.959Z,97321.30
2018-07-20T06:14:27.661Z,97314.13
2018-07-20T06:16:57.357Z,97312.42
2018-07-20T06:19:27.065Z,97315.78
2018-07-20T06:21:56.724Z,97318.57
2018-07-20T06:24:26.544Z,97318.77
2018-07-20T06:26:56.383Z,97317.72
2018-07-20T06:29:26.207Z,97321.71
2018-07-20T06:31:55.763Z,97322.53
2018-07-20T06:34:25.543Z,97324.77
2018-07-20T06:36:55.243Z,97325.22
2018-07-20T06:39:24.928Z,97322.71
2018-07-20T06:41:54.648Z,97324.48
2018-07-20T06:44:24.724Z,97323.78
2018-07-20T06:46:54.424Z,97323.09
2018-07-20T06:49:24.243Z,97315.25
2018-07-20T06:51:53.785Z,97322.45
2018-07-20T06:54:23.483Z,97316.88
2018-07-20T06:56:53.163Z,97317.29
2018-07-20T06:59:23.604Z,97321.98
2018-07-20T07:01:53.204Z,97327.83
2018-07-20T07:04:23.105Z,97324.91
2018-07-20T07:06:52.944Z,97330.23
2018-07-20T07:09:22.934Z,97332.38
2018-07-20T07:11:52.504Z,97328.25
2018-07-20T07:14:22.484Z,97327.09
2018-07-20T07:16:52.655Z,97326.75
2018-07-20T07:19:22.351Z,97324.62
2018-07-20T07:21:52.228Z,97326.29
2018-07-20T07:24:22.148Z,97324.11
2018-07-20T07:26:51.669Z,97318.75
2018-07-20T07:29:21.468Z,97320.72
2018-07-20T07:31:51.208Z,97319.19
2018-07-20T07:34:20.908Z,97326.48
2018-07-20T07:36:50.589Z,97320.41
2018-07-20T07:39:20.429Z,97318.36
2018-07-20T07:41:50.011Z,97317.14
2018-07-20T07:44:20.029Z,97314.09
2018-07-20T07:46:49.788Z,97313.99
2018-07-20T07:49:19.920Z,97312.95
2018-07-20T07:51:50.354Z,97311.25
2018-07-20T07:54:20.134Z,97307.48
2018-07-20T07:56:50.373Z,97307.22
2018-07-20T07:59:20.215Z,97313.09
2018-07-20T08:01:49.918Z,97308.78
2018-07-20T08:04:19.655Z,97312.03
2018-07-20T08:06:49.413Z,97304.11
2018-07-20T08:09:19.342Z,97304.53
2018-07-20T08:11:49.036Z,97305.22
2018-07-20T08:14:18.840Z,97305.43
2018-07-20T08:16:49.054Z,97297.52
2018-07-20T08:19:18.833Z,97302.37
2018-07-20T08:21:48.563Z,97304.27
2018-07-20T08:24:18.421Z,97298.30
2018-07-20T08:26:48.092Z,97300.16
2018-07-20T08:29:17.854Z,97296.10
2018-07-20T08:31:47.658Z,97293.23
2018-07-20T08:34:17.703Z,97293.58
2018-07-20T08:36:47.391Z,97294.02
2018-07-20T08:39:17.213Z,97290.73
2018-07-20T08:41:46.891Z,97285.35
2018-07-20T08:44:16.659Z,97279.67
2018-07-20T08:46:46.211Z,97273.70
2018-07-20T08:49:15.935Z,97276.32
2018-07-20T08:51:45.670Z,97271.48
2018-07-20T08:54:15.453Z,97280.34
2018-07-20T08:56:45.239Z,97282.11
2018-07-20T08:59:14.972Z,97277.94
2018-07-20T09:01:44.569Z,97282.00
2018-07-20T09:04:14.841Z,97281.21
2018-07-20T09:06:44.520Z,97279.33
2018-07-20T09:09:14.220Z,97271.00
2018-07-20T09:11:44.101Z,97271.30
2018-07-20T09:14:13.820Z,97271.51
2018-07-20T09:16:43.540Z,97269.66
2018-07-20T09:19:13.366Z,97268.12
2018-07-20T09:21:43.119Z,97267.20
2018-07-20T09:24:12.892Z,97266.92
2018-07-20T09:26:42.657Z,97262.39
2018-07-20T09:29:12.431Z,97255.20
2018-07-20T09:31:42.197Z,97259.86
2018-07-20T09:34:12.027Z,97256.23
2018-07-20T09:36:41.752Z,97252.95
2018-07-20T09:39:12.372Z,97256.65
2018-07-20T09:41:42.032Z,97252.50
2018-07-20T09:44:11.916Z,97261.27
2018-07-20T09:46:41.695Z,97258.47
2018-07-20T09:49:11.812Z,97252.96
2018-07-20T09:51:41.540Z,97244.83
2018-07-20T09:54:12.966Z,97246.75
2018-07-20T09:56:42.953Z,97246.09
2018-07-20T09:59:14.333Z,97249.09
2018-07-20T10:01:44.605Z,97241.89
2018-07-20T10:04:15.381Z,97246.44
2018-07-20T10:06:45.038Z,97243.28
2018-07-20T10:09:15.998Z,97235.28
2018-07-20T10:11:46.118Z,97242.81
2018-07-20T10:14:17.327Z,97242.55
2018-07-20T10:16:47.078Z,97242.06
2018-07-20T10:19:16.878Z,97241.55
2018-07-20T10:21:46.639Z,97240.52
2018-07-20T10:24:16.398Z,97232.77
2018-07-20T10:26:46.158Z,97239.58
2018-07-20T10:29:15.793Z,97230.09
2018-07-20T10:31:45.601Z,97220.16
2018-07-20T10:34:15.218Z,97218.09
2018-07-20T10:36:44.922Z,97213.72
2018-07-20T10:39:14.668Z,97216.55
2018-07-20T10:41:44.311Z,97210.80
2018-07-20T10:44:14.072Z,97213.35
2018-07-20T10:46:43.931Z,97214.16
2018-07-20T10:49:13.512Z,97208.63
2018-07-20T10:51:43.171Z,97206.26
2018-07-20T10:54:12.893Z,97205.25
2018-07-20T10:56:42.653Z,97201.52
2018-07-20T10:59:12.352Z,97195.38
2018-07-20T11:01:42.064Z,97199.16
2018-07-20T11:04:11.712Z,97190.98
2018-07-20T11:06:41.412Z,97187.14
2018-07-20T11:09:11.032Z,97183.31
2018-07-20T11:11:40.892Z,97180.00
2018-07-20T11:14:10.612Z,97174.70
2018-07-20T11:16:40.815Z,97177.87
2018-07-20T11:19:10.816Z,97175.43
2018-07-20T11:21:40.733Z,97159.48
2018-07-20T11:24:10.653Z,97165.34
2018-07-20T11:26:40.662Z,97169.13
2018-07-20T11:29:10.188Z,97160.23
2018-07-20T11:31:39.833Z,97150.40
2018-07-20T11:34:09.514Z,97152.38
2018-07-20T11:36:39.037Z,97147.30
2018-07-20T11:39:10.142Z,97141.13
2018-07-20T11:41:46.941Z,97136.90
2018-07-20T11:44:28.026Z,97136.27
2018-07-20T11:47:15.124Z,97134.75
2018-07-20T11:49:59.207Z,97130.16
2018-07-20T11:52:28.767Z,97130.64
2018-07-20T11:54:58.394Z,97128.64
2018-07-20T11:57:27.866Z,97126.09
2018-07-20T11:59:57.567Z,97124.62
2018-07-20T12:02:27.380Z,97125.72
2018-07-20T12:04:57.060Z,97122.84
2018-07-20T12:07:28.817Z,97117.90
2018-07-20T12:10:13.257Z,97121.59
2018-07-20T12:12:56.504Z,97115.13
2018-07-20T12:15:26.550Z,97110.70
2018-07-20T12:17:59.071Z,97105.88
2018-07-20T12:20:40.466Z,97098.88
2018-07-20T12:23:20.956Z,97111.64
2018-07-20T12:26:06.582Z,97108.00
2018-07-20T12:28:36.257Z,97110.02
2018-07-20T12:31:06.422Z,97107.83
2018-07-20T12:33:36.872Z,97103.36
2018-07-20T12:36:07.876Z,97107.14
2018-07-20T12:38:37.362Z,97099.95
2018-07-20T12:41:07.474Z,97101.95
2018-07-20T12:43:38.883Z,97104.32
2018-07-20T12:46:08.741Z,97113.77
2018-07-20T12:48:38.261Z,97112.37
2018-07-20T12:51:08.133Z,97115.13
2018-07-20T12:53:37.695Z,97107.22
2018-07-20T12:56:07.367Z,97096.77
2018-07-20T12:58:37.438Z,97089.30
2018-07-20T13:01:07.176Z,97096.70
2018-07-20T13:03:37.979Z,97097.94
2018-07-20T13:06:07.598Z,97098.67
2018-07-20T13:08:37.273Z,97102.80
2018-07-20T13:11:07.031Z,97102.53
2018-07-20T13:13:44.387Z,97096.61
2018-07-20T13:16:26.656Z,97090.23
2018-07-20T13:19:09.949Z,97089.41
2018-07-20T13:21:59.124Z,97098.55
2018-07-20T13:24:34.370Z,97093.94
2018-07-20T13:27:04.388Z,97097.16
2018-07-20T13:29:34.667Z,97087.94
2018-07-20T13:32:27.320Z,97093.12
2018-07-20T13:35:13.402Z,97091.17
2018-07-20T13:38:03.381Z,97089.75
2018-07-20T13:40:34.909Z,97085.67
2018-07-20T13:43:04.599Z,97090.09
2018-07-20T13:45:37.527Z,97089.31
2018-07-20T13:48:13.365Z,97088.70
2018-07-20T13:50:43.156Z,97088.41
2018-07-20T13:53:13.315Z,97097.89
2018-07-20T13:56:15.117Z,97102.23
2018-07-20T13:58:45.702Z,97096.06
2018-07-20T14:01:15.316Z,97098.33
2018-07-20T14:03:46.953Z,97103.41
2018-07-20T14:06:16.878Z,97102.84
2018-07-20T14:08:46.475Z,97111.24
2018-07-20T14:11:16.955Z,97110.80
2018-07-20T14:13:46.672Z,97106.66
2018-07-20T14:16:20.140Z,97110.89
2018-07-20T14:18:50.745Z,97100.16
2018-07-20T14:21:20.607Z,97102.25
2018-07-20T14:23:50.365Z,97089.15
2018-07-20T14:26:21.170Z,97095.09
2018-07-20T14:28:50.997Z,97107.58
2018-07-20T14:31:20.939Z,97113.53
2018-07-20T14:33:51.977Z,97114.66
2018-07-20T14:36:26.337Z,97114.06
2018-07-20T14:38:56.564Z,97109.20
2018-07-20T14:41:26.702Z,97109.98
2018-07-20T14:43:56.636Z,97099.34
2018-07-20T14:46:27.681Z,97090.93
2018-07-20T14:48:58.286Z,97091.16
2018-07-20T14:51:28.082Z,97090.73
2018-07-20T14:53:58.679Z,97089.19
2018-07-20T14:56:29.056Z,97102.87
2018-07-20T14:58:59.056Z,97108.76
2018-07-20T15:01:28.800Z,97104.42
2018-07-20T15:03:58.763Z,97104.83
2018-07-20T15:06:30.993Z,97108.57
2018-07-20T15:09:01.286Z,97118.82
2018-07-20T15:11:32.091Z,97121.81
2018-07-20T15:14:01.870Z,97126.31
2018-07-20T15:16:31.568Z,97122.08
2018-07-20T15:19:01.559Z,97119.88
2018-07-20T15:21:31.530Z,97132.08
2018-07-20T15:24:01.150Z,97147.60
2018-07-20T15:26:31.048Z,97159.25
2018-07-20T15:29:01.229Z,97172.09
2018-07-20T15:31:31.030Z,97190.91
2018-07-20T15:34:00.709Z,97200.44
2018-07-20T15:36:30.527Z,97209.11
2018-07-20T15:39:00.267Z,97207.02
2018-07-20T15:41:30.128Z,97201.39
2018-07-20T15:43:59.824Z,97208.98
2018-07-20T15:46:29.643Z,97216.77
2018-07-20T15:48:59.268Z,97211.47
2018-07-20T15:51:55.488Z,97218.98
2018-07-20T15:53:59.395Z,97210.05
2018-07-20T15:56:29.187Z,97215.58
2018-07-20T15:58:59.166Z,97221.34
2018-07-20T16:01:29.071Z,97224.00
2018-07-20T16:03:58.706Z,97209.78
2018-07-20T16:06:28.586Z,97213.98
2018-07-20T16:08:58.348Z,97206.70
2018-07-20T16:11:28.147Z,97196.11
2018-07-20T16:13:58.987Z,97207.41
2018-07-20T16:16:29.254Z,97213.46
2018-07-20T16:18:58.967Z,97217.63
2018-07-20T16:21:28.799Z,97217.13
2018-07-20T16:23:58.827Z,97213.01
2018-07-20T16:26:28.585Z,97220.50
2018-07-20T16:28:58.126Z,97222.65
2018-07-20T16:31:29.645Z,97225.80
2018-07-20T16:33:59.246Z,97220.31
2018-07-20T16:36:29.727Z,97211.89
2018-07-20T16:38:59.433Z,97196.31
2018-07-20T16:41:29.785Z,97187.70
2018-07-20T16:43:59.486Z,97186.52
2018-07-20T16:46:29.746Z,97172.41
2018-07-20T16:48:59.476Z,97174.59
2018-07-20T16:51:29.125Z,97166.78
2018-07-20T16:53:58.768Z,97167.63
2018-07-20T16:56:28.378Z,97165.14
2018-07-20T16:58:58.065Z,97154.03
2018-07-20T17:01:27.801Z,97165.80
2018-07-20T17:03:57.485Z,97163.48
2018-07-20T17:06:27.725Z,97163.48
2018-07-20T17:08:57.467Z,97167.77
2018-07-20T17:11:27.184Z,97174.23
2018-07-20T17:13:57.084Z,97163.88
2018-07-20T17:16:26.845Z,97150.32
2018-07-20T17:18:56.811Z,97154.56
2018-07-20T17:21:26.514Z,97146.72
2018-07-20T17:23:56.321Z,97134.29
2018-07-20T17:26:25.912Z,97119.27
2018-07-20T17:28:55.805Z,97114.86
2018-07-20T17:31:25.482Z,97096.56
2018-07-20T17:33:55.302Z,97091.59
2018-07-20T17:36:25.061Z,97088.85
2018-07-20T17:38:54.902Z,97094.00
2018-07-20T17:41:24.581Z,97086.58
2018-07-20T17:43:54.364Z,97086.99
2018-07-20T17:46:23.942Z,97083.25
2018-07-20T17:48:53.861Z,97083.16
2018-07-20T17:51:23.622Z,97083.16
2018-07-20T17:53:53.242Z,97076.17
2018-07-20T17:56:23.146Z,97072.30
2018-07-20T17:58:53.000Z,97068.23
2018-07-20T18:01:22.662Z,97068.02
2018-07-20T18:03:52.420Z,97072.87
2018-07-20T18:06:22.820Z,97068.42
2018-07-20T18:08:52.781Z,97071.12
2018-07-20T18:11:23.461Z,97077.27
2018-07-20T18:13:54.041Z,97080.13
2018-07-20T18:16:23.780Z,97083.47
2018-07-20T18:18:53.540Z,97096.77
2018-07-20T18:21:23.628Z,97106.08
2018-07-20T18:23:53.381Z,97104.98
2018-07-20T18:26:23.506Z,97110.80
2018-07-20T18:28:53.321Z,97104.85
2018-07-20T18:31:23.010Z,97110.16
2018-07-20T18:33:52.915Z,97105.15
2018-07-20T18:36:22.503Z,97092.43
2018-07-20T18:38:52.260Z,97091.59
2018-07-20T18:41:22.020Z,97099.22
2018-07-20T18:43:51.959Z,97096.73
2018-07-20T18:46:21.861Z,97094.08
2018-07-20T18:48:51.740Z,97092.43
2018-07-20T18:51:21.383Z,97089.11
2018-07-20T18:53:51.159Z,97092.91
2018-07-20T18:56:20.860Z,97094.56
2018-07-20T18:58:50.683Z,97091.75
2018-07-20T19:01:20.442Z,97092.09
2018-07-20T19:03:50.261Z,97104.49
2018-07-20T19:06:19.940Z,97113.91
2018-07-20T19:08:49.701Z,97115.70
2018-07-20T19:11:19.463Z,97113.55
2018-07-20T19:13:49.227Z,97115.01
2018-07-20T19:16:18.979Z,97120.30
2018-07-20T19:18:48.763Z,97121.09
2018-07-20T19:21:18.481Z,97128.00
2018-07-20T19:23:48.327Z,97125.17
2018-07-20T19:26:18.021Z,97125.36
2018-07-20T19:28:47.968Z,97129.48
2018-07-20T19:31:17.658Z,97135.75
2018-07-20T19:33:47.681Z,97130.11
2018-07-20T19:36:17.401Z,97134.91
2018-07-20T19:38:47.242Z,97133.89
2018-07-20T19:41:17.145Z,97134.75
2018-07-20T19:43:48.442Z,97140.86
2018-07-20T19:46:18.080Z,97140.66
2018-07-20T19:48:47.945Z,97125.14
2018-07-20T19:51:17.581Z,97141.17
2018-07-20T19:53:48.176Z,97128.95
2018-07-20T19:56:18.075Z,97135.87
2018-07-20T19:58:47.914Z,97133.08
2018-07-20T20:01:17.688Z,97134.59
2018-07-20T20:03:47.655Z,97126.62
2018-07-20T20:06:17.491Z,97128.45
2018-07-20T20:08:47.438Z,97123.81
2018-07-20T20:11:17.236Z,97123.16
2018-07-20T20:13:47.113Z,97119.00
2018-07-20T20:16:16.969Z,97121.02
2018-07-20T20:18:46.921Z,97127.63
2018-07-20T20:21:16.609Z,97121.02
2018-07-20T20:23:47.211Z,97130.46
2018-07-20T20:26:17.215Z,97122.87
2018-07-20T20:28:47.181Z,97124.03
2018-07-20T20:31:16.903Z,97118.58
2018-07-20T20:33:47.136Z,97120.70
2018-07-20T20:36:17.257Z,97119.91
2018-07-20T20:38:47.184Z,97127.34
2018-07-20T20:41:16.936Z,97122.36
2018-07-20T20:43:47.270Z,97136.79
2018-07-20T20:46:17.425Z,97131.62
2018-07-20T20:48:47.566Z,97133.27
2018-07-20T20:51:17.706Z,97133.42
2018-07-20T20:53:47.707Z,97128.60
2018-07-20T20:56:18.144Z,97133.39
2018-07-20T20:58:48.587Z,97133.70
2018-07-20T21:01:19.124Z,97137.86
2018-07-20T21:03:49.527Z,97131.88
2018-07-20T21:06:19.332Z,97132.03
2018-07-20T21:08:50.085Z,97128.37
2018-07-20T21:11:20.175Z,97133.82
2018-07-20T21:13:50.712Z,97131.18
2018-07-20T21:16:21.222Z,97125.54
2018-07-20T21:18:51.163Z,97118.27
2018-07-20T21:21:21.457Z,97125.38
2018-07-20T21:23:52.087Z,97124.21
2018-07-20T21:26:21.817Z,97125.38
2018-07-20T21:28:51.638Z,97125.54
2018-07-20T21:31:21.410Z,97125.73
2018-07-20T21:33:51.360Z,97121.26
2018-07-20T21:36:21.229Z,97116.16
2018-07-20T21:38:51.040Z,97122.58
2018-07-20T21:41:20.765Z,97126.55
2018-07-20T21:43:50.717Z,97125.38
2018-07-20T21:46:20.583Z,97128.49
2018-07-20T21:48:50.469Z,97133.86
2018-07-20T21:51:20.146Z,97132.50
2018-07-20T21:53:50.384Z,97130.36
2018-07-20T21:56:20.004Z,97127.17
2018-07-20T21:58:49.788Z,97128.34
2018-07-20T22:01:19.437Z,97136.23
2018-07-20T22:03:49.285Z,97128.20
2018-07-20T22:06:18.977Z,97135.12
2018-07-20T22:08:49.905Z,97132.95
2018-07-20T22:11:19.830Z,97131.06
2018-07-20T22:13:49.537Z,97125.62
2018-07-20T22:16:19.156Z,97134.36
2018-07-20T22:18:49.283Z,97130.50
2018-07-20T22:21:19.252Z,97127.31
2018-07-20T22:23:48.993Z,97133.77
2018-07-20T22:26:18.707Z,97132.80
2018-07-20T22:28:48.626Z,97134.92
2018-07-20T22:31:18.287Z,97127.70
2018-07-20T22:33:47.981Z,97131.66
2018-07-20T22:36:18.022Z,97131.05
2018-07-20T22:38:48.200Z,97136.80
2018-07-20T22:41:17.887Z,97126.38
2018-07-20T22:43:47.721Z,97128.26
2018-07-20T22:46:18.068Z,97131.15
2018-07-20T22:48:48.089Z,97131.66
2018-07-20T22:51:17.863Z,97126.63
2018-07-20T22:53:47.614Z,97133.59
2018-07-20T22:56:17.384Z,97128.30
2018-07-20T22:58:47.144Z,97127.09
2018-07-20T23:01:17.634Z,97124.41
2018-07-20T23:03:47.619Z,97127.61
2018-07-20T23:06:17.543Z,97123.89
2018-07-20T23:08:47.540Z,97122.88
2018-07-20T23:11:17.753Z,97125.11
2018-07-20T23:13:47.276Z,97123.21
2018-07-20T23:16:17.046Z,97128.36
2018-07-20T23:18:46.481Z,97123.31
2018-07-20T23:21:15.909Z,97128.13
2018-07-20T23:23:45.603Z,97121.98
2018-07-20T23:26:15.155Z,97118.27
2018-07-20T23:28:44.876Z,97125.72
2018-07-20T23:31:14.442Z,97126.62
2018-07-20T23:33:44.457Z,97126.82
2018-07-20T23:36:14.497Z,97130.28
2018-07-20T23:38:43.916Z,97128.96
2018-07-20T23:41:13.497Z,97129.70
2018-07-20T23:43:42.961Z,97126.62
2018-07-20T23:46:12.416Z,97131.45
2018-07-20T23:48:41.852Z,97132.34
2018-07-20T23:51:12.838Z,97128.61
2018-07-20T23:53:42.217Z,97132.05
2018-07-20T23:56:13.533Z,97131.53
2018-07-20T23:58:42.978Z,97133.95
